createdAt,value
2018-12-25T00:02:29.562Z,80.86
2018-12-25T00:05:11.202Z,80.87
2018-12-25T00:07:49.165Z,80.93
2018-12-25T00:10:28.520Z,80.89
2018-12-25T00:13:08.229Z,80.83
2018-12-25T00:15:48.455Z,80.78
2018-12-25T00:18:30.978Z,80.75
2018-12-25T00:21:10.912Z,80.72
2018-12-25T00:23:53.413Z,80.76
2018-12-25T00:26:34.003Z,80.78
2018-12-25T00:29:13.211Z,80.80
2018-12-25T00:31:52.478Z,80.82
2018-12-25T00:34:36.854Z,80.83
2018-12-25T00:37:16.836Z,80.82
2018-12-25T00:39:57.523Z,80.83
2018-12-25T00:42:41.950Z,80.83
2018-12-25T00:45:26.894Z,80.83
2018-12-25T00:48:08.191Z,80.84
2018-12-25T00:50:46.478Z,80.86
2018-12-25T00:53:29.718Z,80.86
2018-12-25T00:56:13.985Z,80.88
2018-12-25T00:58:57.933Z,80.92
2018-12-25T01:01:38.555Z,80.91
2018-12-25T01:04:23.737Z,80.93
2018-12-25T01:07:03.218Z,80.89
2018-12-25T01:09:43.808Z,80.89
2018-12-25T01:12:27.481Z,80.87
2018-12-25T01:15:06.567Z,80.87
2018-12-25T01:17:53.265Z,80.86
2018-12-25T01:20:32.776Z,80.83
2018-12-25T01:23:16.250Z,80.84
2018-12-25T01:25:57.597Z,80.85
2018-12-25T01:28:47.806Z,80.83
2018-12-25T01:31:31.126Z,80.81
2018-12-25T01:34:11.301Z,80.85
2018-12-25T01:36:51.175Z,80.82
2018-12-25T01:39:31.970Z,80.84
2018-12-25T01:42:19.980Z,80.79
2018-12-25T01:44:58.492Z,80.78
2018-12-25T01:47:44.146Z,80.79
2018-12-25T01:50:25.284Z,80.81
2018-12-25T01:53:05.455Z,80.76
2018-12-25T01:55:45.056Z,80.76
2018-12-25T01:58:27.477Z,80.74
2018-12-25T02:01:05.756Z,80.74
2018-12-25T02:03:50.024Z,80.72
2018-12-25T02:06:33.187Z,80.71
2018-12-25T02:09:20.295Z,80.68
2018-12-25T02:12:02.636Z,80.70
2018-12-25T02:14:42.405Z,80.68
2018-12-25T02:17:24.189Z,80.69
2018-12-25T02:20:05.492Z,80.66
2018-12-25T02:22:47.939Z,80.65
2018-12-25T02:25:30.733Z,80.64
2018-12-25T02:28:10.262Z,80.60
2018-12-25T02:30:48.981Z,80.57
2018-12-25T02:33:29.578Z,80.52
2018-12-25T02:36:10.549Z,80.49
2018-12-25T02:38:53.410Z,80.42
2018-12-25T02:41:34.411Z,80.37
2018-12-25T02:44:17.483Z,80.32
2018-12-25T02:46:56.279Z,80.27
2018-12-25T02:49:36.670Z,80.27
2018-12-25T02:52:18.776Z,80.22
2018-12-25T02:54:58.107Z,80.08
2018-12-25T02:57:40.259Z,80.07
2018-12-25T03:00:19.216Z,79.94
2018-12-25T03:02:59.606Z,79.92
2018-12-25T03:05:44.722Z,79.87
2018-12-25T03:08:25.919Z,79.83
2018-12-25T03:11:07.190Z,79.70
2018-12-25T03:13:51.328Z,79.58
2018-12-25T03:16:31.648Z,79.55
2018-12-25T03:19:11.987Z,79.39
2018-12-25T03:21:52.718Z,79.39
2018-12-25T03:24:33.313Z,79.24
2018-12-25T03:27:15.746Z,79.26
2018-12-25T03:29:58.144Z,79.23
2018-12-25T03:32:40.765Z,79.17
2018-12-25T03:35:22.405Z,79.18
2018-12-25T03:38:06.258Z,79.14
2018-12-25T03:40:46.679Z,79.16
2018-12-25T03:43:27.087Z,79.06
2018-12-25T03:46:11.443Z,79.05
2018-12-25T03:48:51.704Z,78.87
2018-12-25T03:51:33.953Z,78.85
2018-12-25T03:54:21.409Z,78.79
2018-12-25T03:57:02.418Z,78.67
2018-12-25T03:59:41.237Z,78.60
2018-12-25T04:02:28.210Z,78.49
2018-12-25T04:05:08.322Z,78.48
2018-12-25T04:07:49.310Z,78.45
2018-12-25T04:10:33.426Z,78.35
2018-12-25T04:13:14.044Z,78.34
2018-12-25T04:15:54.942Z,78.24
2018-12-25T04:18:36.579Z,78.17
2018-12-25T04:21:17.947Z,78.18
2018-12-25T04:23:58.249Z,78.10
2018-12-25T04:26:43.937Z,78.04
2018-12-25T04:29:29.291Z,78.06
2018-12-25T04:32:09.379Z,78.05
2018-12-25T04:34:49.585Z,77.92
2018-12-25T04:37:30.357Z,77.87
2018-12-25T04:40:08.469Z,77.90
2018-12-25T04:42:48.660Z,77.84
2018-12-25T04:45:28.012Z,77.86
2018-12-25T04:48:07.878Z,77.84
2018-12-25T04:50:48.233Z,77.86
2018-12-25T04:53:28.595Z,77.80
2018-12-25T04:56:07.286Z,77.77
2018-12-25T04:58:47.172Z,77.71
2018-12-25T05:01:25.366Z,77.70
2018-12-25T05:04:06.541Z,77.67
2018-12-25T05:06:46.313Z,77.62
2018-12-25T05:09:25.934Z,77.56
2018-12-25T05:12:04.550Z,77.54
2018-12-25T05:14:44.990Z,77.52
2018-12-25T05:17:26.225Z,77.51
2018-12-25T05:20:05.805Z,77.40
2018-12-25T05:22:48.622Z,77.40
2018-12-25T05:25:30.440Z,77.42
2018-12-25T05:28:12.875Z,77.45
2018-12-25T05:30:51.072Z,77.41
2018-12-25T05:33:29.944Z,77.40
2018-12-25T05:36:14.443Z,77.34
2018-12-25T05:38:53.926Z,77.32
2018-12-25T05:41:34.380Z,77.30
2018-12-25T05:44:16.889Z,77.27
2018-12-25T05:46:54.232Z,77.25
2018-12-25T05:49:33.836Z,77.21
2018-12-25T05:52:13.756Z,77.16
2018-12-25T05:54:57.748Z,77.18
2018-12-25T05:57:36.534Z,77.01
2018-12-25T06:00:16.954Z,77.01
2018-12-25T06:02:57.222Z,76.85
2018-12-25T06:05:38.205Z,76.82
2018-12-25T06:08:31.405Z,76.76
2018-12-25T06:11:11.566Z,76.76
2018-12-25T06:13:52.532Z,76.70
2018-12-25T06:16:33.049Z,76.66
2018-12-25T06:19:16.779Z,76.54
2018-12-25T06:22:00.397Z,76.43
2018-12-25T06:24:36.912Z,76.39
2018-12-25T06:27:16.465Z,76.32
2018-12-25T06:29:58.040Z,76.24
2018-12-25T06:32:38.612Z,76.22
2018-12-25T06:35:18.683Z,76.17
2018-12-25T06:38:00.559Z,75.95
2018-12-25T06:40:47.152Z,75.85
2018-12-25T06:43:28.777Z,75.90
2018-12-25T06:46:08.648Z,75.86
2018-12-25T06:48:48.956Z,75.86
2018-12-25T06:51:32.518Z,75.77
2018-12-25T06:54:11.650Z,75.75
2018-12-25T06:56:50.977Z,75.70
2018-12-25T06:59:33.582Z,75.62
2018-12-25T07:02:09.853Z,75.51
2018-12-25T07:04:49.552Z,75.58
2018-12-25T07:07:28.846Z,75.54
2018-12-25T07:10:09.757Z,75.60
2018-12-25T07:12:48.700Z,75.69
2018-12-25T07:15:33.185Z,75.72
2018-12-25T07:18:10.095Z,75.74
2018-12-25T07:20:48.845Z,75.76
2018-12-25T07:23:29.106Z,75.79
2018-12-25T07:26:07.976Z,75.85
2018-12-25T07:28:50.757Z,75.92
2018-12-25T07:31:31.488Z,76.00
2018-12-25T07:34:12.280Z,76.12
2018-12-25T07:36:54.791Z,76.10
2018-12-25T07:39:37.766Z,76.02
2018-12-25T07:42:17.210Z,76.01
2018-12-25T07:44:59.525Z,76.02
2018-12-25T07:47:37.530Z,76.04
2018-12-25T07:50:19.401Z,76.04
2018-12-25T07:53:01.688Z,76.01
2018-12-25T07:55:40.545Z,75.97
2018-12-25T07:58:22.150Z,75.94
2018-12-25T08:01:02.100Z,75.94
2018-12-25T08:03:42.088Z,75.86
2018-12-25T08:06:25.969Z,75.79
2018-12-25T08:09:05.690Z,75.73
2018-12-25T08:11:45.956Z,75.76
2018-12-25T08:14:28.140Z,75.70
2018-12-25T08:17:06.435Z,75.63
2018-12-25T08:19:45.566Z,75.58
2018-12-25T08:22:24.421Z,75.45
2018-12-25T08:25:14.369Z,75.36
2018-12-25T08:27:52.498Z,75.39
2018-12-25T08:30:29.417Z,75.34
2018-12-25T08:33:10.890Z,75.40
2018-12-25T08:35:50.290Z,75.40
2018-12-25T08:38:33.101Z,75.40
2018-12-25T08:41:12.827Z,75.47
2018-12-25T08:43:53.456Z,75.55
2018-12-25T08:46:35.590Z,75.65
2018-12-25T08:49:23.327Z,75.74
2018-12-25T08:52:03.375Z,75.87
2018-12-25T08:54:41.092Z,75.95
2018-12-25T08:57:23.467Z,75.89
2018-12-25T09:00:08.818Z,75.81
2018-12-25T09:02:59.657Z,75.84
2018-12-25T09:05:41.480Z,75.93
2018-12-25T09:08:21.100Z,75.94
2018-12-25T09:11:05.529Z,75.89
2018-12-25T09:13:44.540Z,75.92
2018-12-25T09:16:28.531Z,75.86
2018-12-25T09:19:11.441Z,75.83
2018-12-25T09:21:56.445Z,75.81
2018-12-25T09:24:43.973Z,75.75
2018-12-25T09:27:23.837Z,75.74
2018-12-25T09:30:10.204Z,75.73
2018-12-25T09:32:50.209Z,75.79
2018-12-25T09:35:31.442Z,75.83
2018-12-25T09:38:17.386Z,75.88
2018-12-25T09:40:57.121Z,75.97
2018-12-25T09:43:34.294Z,75.96
2018-12-25T09:46:11.535Z,75.94
2018-12-25T09:48:48.856Z,75.86
2018-12-25T09:51:34.231Z,75.74
2018-12-25T09:54:10.061Z,75.80
2018-12-25T09:56:55.303Z,75.84
2018-12-25T09:59:34.170Z,75.77
2018-12-25T10:02:12.805Z,75.69
2018-12-25T10:04:52.922Z,75.56
2018-12-25T10:07:32.271Z,75.47
2018-12-25T10:10:11.795Z,75.37
2018-12-25T10:12:51.953Z,75.33
2018-12-25T10:15:30.250Z,75.22
2018-12-25T10:18:14.092Z,75.15
2018-12-25T10:20:57.310Z,75.03
2018-12-25T10:23:38.293Z,74.99
2018-12-25T10:26:20.979Z,74.95
2018-12-25T10:29:00.117Z,74.83
2018-12-25T10:31:39.272Z,74.75
2018-12-25T10:34:14.613Z,74.59
2018-12-25T10:36:52.256Z,74.57
2018-12-25T10:39:29.990Z,74.41
2018-12-25T10:42:13.632Z,74.24
2018-12-25T10:44:53.551Z,74.16
2018-12-25T10:47:33.858Z,74.04
2018-12-25T10:50:17.703Z,73.94
2018-12-25T10:53:06.335Z,73.95
2018-12-25T10:55:45.743Z,73.86
2018-12-25T10:58:25.488Z,73.82
2018-12-25T11:01:21.848Z,73.85
2018-12-25T11:04:02.310Z,73.79
2018-12-25T11:06:43.358Z,73.85
2018-12-25T11:09:24.443Z,73.90
2018-12-25T11:12:03.302Z,73.99
2018-12-25T11:14:38.220Z,73.98
2018-12-25T11:17:17.726Z,74.13
2018-12-25T11:19:57.556Z,74.25
2018-12-25T11:22:34.712Z,74.30
2018-12-25T11:25:13.740Z,74.41
2018-12-25T11:27:52.938Z,74.48
2018-12-25T11:30:36.402Z,74.46
2018-12-25T11:33:17.830Z,74.45
2018-12-25T11:35:57.120Z,74.45
2018-12-25T11:38:37.402Z,74.42
2018-12-25T11:41:18.901Z,74.35
2018-12-25T11:43:57.991Z,74.33
2018-12-25T11:46:42.016Z,74.34
2018-12-25T11:49:26.295Z,74.45
2018-12-25T11:52:07.014Z,74.47
2018-12-25T11:54:51.256Z,74.36
2018-12-25T11:57:30.866Z,74.25
2018-12-25T12:00:10.337Z,74.26
2018-12-25T12:02:50.569Z,74.18
2018-12-25T12:05:33.908Z,74.09
2018-12-25T12:08:14.792Z,74.18
2018-12-25T12:10:53.614Z,74.18
2018-12-25T12:13:32.542Z,74.13
2018-12-25T12:16:07.215Z,74.04
2018-12-25T12:18:47.360Z,74.01
2018-12-25T12:21:27.083Z,73.85
2018-12-25T12:24:07.675Z,73.84
2018-12-25T12:26:50.360Z,73.87
2018-12-25T12:29:29.974Z,73.95
2018-12-25T12:32:13.813Z,73.90
2018-12-25T12:34:55.364Z,73.86
2018-12-25T12:37:38.121Z,73.91
2018-12-25T12:40:16.984Z,74.19
2018-12-25T12:43:00.142Z,74.42
2018-12-25T12:45:41.404Z,74.48
2018-12-25T12:48:24.886Z,74.44
2018-12-25T12:51:07.935Z,74.47
2018-12-25T12:53:47.900Z,74.49
2018-12-25T12:56:25.585Z,74.44
2018-12-25T12:59:08.210Z,74.17
2018-12-25T13:01:48.643Z,73.99
2018-12-25T13:04:30.130Z,73.93
2018-12-25T13:07:08.080Z,74.07
2018-12-25T13:09:47.190Z,74.21
2018-12-25T13:12:28.285Z,74.38
2018-12-25T13:15:08.513Z,74.52
2018-12-25T13:17:47.283Z,74.62
2018-12-25T13:20:28.533Z,74.70
2018-12-25T13:23:08.680Z,74.78
2018-12-25T13:25:48.622Z,74.84
2018-12-25T13:28:33.976Z,74.90
2018-12-25T13:31:18.330Z,74.97
2018-12-25T13:34:04.055Z,75.04
2018-12-25T13:36:45.136Z,75.11
2018-12-25T13:39:27.094Z,75.13
2018-12-25T13:42:05.104Z,75.20
2018-12-25T13:44:45.389Z,75.27
2018-12-25T13:47:26.044Z,75.35
2018-12-25T13:50:06.064Z,75.45
2018-12-25T13:52:49.184Z,75.56
2018-12-25T13:55:29.921Z,75.63
2018-12-25T13:58:11.440Z,75.70
2018-12-25T14:00:54.135Z,75.78
2018-12-25T14:03:37.357Z,75.83
2018-12-25T14:06:17.262Z,75.95
2018-12-25T14:09:00.075Z,76.10
2018-12-25T14:11:41.729Z,76.19
2018-12-25T14:14:22.399Z,76.22
2018-12-25T14:17:03.702Z,76.27
2018-12-25T14:19:42.765Z,76.30
2018-12-25T14:22:23.213Z,76.32
2018-12-25T14:25:05.705Z,76.38
2018-12-25T14:27:46.392Z,76.38
2018-12-25T14:30:28.147Z,76.33
2018-12-25T14:33:07.415Z,76.21
2018-12-25T14:35:50.737Z,76.17
2018-12-25T14:38:31.526Z,76.13
2018-12-25T14:41:11.528Z,76.07
2018-12-25T14:43:52.325Z,75.96
2018-12-25T14:46:34.419Z,75.90
2018-12-25T14:49:18.195Z,75.85
2018-12-25T14:51:56.337Z,75.78
2018-12-25T14:54:36.263Z,75.66
2018-12-25T14:57:19.920Z,75.64
2018-12-25T15:00:00.435Z,75.61
2018-12-25T15:02:43.452Z,75.50
2018-12-25T15:05:23.820Z,75.44
2018-12-25T15:08:02.874Z,75.27
2018-12-25T15:10:42.354Z,75.26
2018-12-25T15:13:27.734Z,75.19
2018-12-25T15:16:08.047Z,75.07
2018-12-25T15:18:48.357Z,74.90
2018-12-25T15:21:27.744Z,74.56
2018-12-25T15:24:08.215Z,74.33
2018-12-25T15:26:48.181Z,74.31
2018-12-25T15:29:30.046Z,74.26
2018-12-25T15:32:15.374Z,74.23
2018-12-25T15:35:00.200Z,73.96
2018-12-25T15:37:40.440Z,73.88
2018-12-25T15:40:22.057Z,73.81
2018-12-25T15:43:03.322Z,73.80
2018-12-25T15:45:45.388Z,73.87
2018-12-25T15:48:25.937Z,73.92
2018-12-25T15:51:07.078Z,73.90
2018-12-25T15:53:50.579Z,73.88
2018-12-25T15:56:37.173Z,73.96
2018-12-25T15:59:17.511Z,73.97
2018-12-25T16:01:58.114Z,74.01
2018-12-25T16:04:40.645Z,74.02
2018-12-25T16:07:20.419Z,74.07
2018-12-25T16:10:00.169Z,74.09
2018-12-25T16:12:45.576Z,74.07
2018-12-25T16:15:24.165Z,74.00
2018-12-25T16:18:09.586Z,73.95
2018-12-25T16:20:54.185Z,73.94
2018-12-25T16:23:32.852Z,73.96
2018-12-25T16:26:13.159Z,73.99
2018-12-25T16:28:53.340Z,73.94
2018-12-25T16:31:37.665Z,73.93
2018-12-25T16:34:19.961Z,73.99
2018-12-25T16:37:00.419Z,74.03
2018-12-25T16:39:44.873Z,74.07
2018-12-25T16:42:24.880Z,74.06
2018-12-25T16:45:05.135Z,74.07
2018-12-25T16:47:46.512Z,74.08
2018-12-25T16:50:27.717Z,74.11
2018-12-25T16:53:08.383Z,74.17
2018-12-25T16:55:48.190Z,74.16
2018-12-25T16:58:28.161Z,74.12
2018-12-25T17:01:08.939Z,74.11
2018-12-25T17:03:49.497Z,74.05
2018-12-25T17:06:32.330Z,74.08
2018-12-25T17:09:15.682Z,74.08
2018-12-25T17:11:54.679Z,74.08
2018-12-25T17:14:35.459Z,74.11
2018-12-25T17:17:19.007Z,74.09
2018-12-25T17:20:02.603Z,73.97
2018-12-25T17:22:42.915Z,73.93
2018-12-25T17:25:22.476Z,73.92
2018-12-25T17:28:02.610Z,73.90
2018-12-25T17:30:43.707Z,73.89
2018-12-25T17:33:24.094Z,73.81
2018-12-25T17:36:03.614Z,73.79
2018-12-25T17:38:43.829Z,73.68
2018-12-25T17:41:27.300Z,73.72
2018-12-25T17:44:06.378Z,73.71
2018-12-25T17:46:51.039Z,73.74
2018-12-25T17:49:33.520Z,73.59
2018-12-25T17:52:12.777Z,73.65
2018-12-25T17:54:52.800Z,73.58
2018-12-25T17:57:32.553Z,73.57
2018-12-25T18:00:12.058Z,73.56
2018-12-25T18:02:53.546Z,73.56
2018-12-25T18:05:34.420Z,73.54
2018-12-25T18:08:18.126Z,73.50
2018-12-25T18:10:54.756Z,73.47
2018-12-25T18:13:46.016Z,73.52
2018-12-25T18:16:30.502Z,73.45
2018-12-25T18:19:11.823Z,73.46
2018-12-25T18:21:55.410Z,73.53
2018-12-25T18:24:46.248Z,73.48
2018-12-25T18:27:45.043Z,73.50
2018-12-25T18:30:23.984Z,73.48
2018-12-25T18:33:09.617Z,73.48
2018-12-25T18:35:47.394Z,73.44
2018-12-25T18:38:29.282Z,73.39
2018-12-25T18:41:09.322Z,73.26
2018-12-25T18:43:54.213Z,73.33
2018-12-25T18:46:40.310Z,73.39
2018-12-25T18:49:22.652Z,73.48
2018-12-25T18:52:10.487Z,73.54
2018-12-25T18:55:02.387Z,73.51
2018-12-25T18:57:45.724Z,73.49
2018-12-25T19:00:24.994Z,73.53
2018-12-25T19:03:08.163Z,73.59
2018-12-25T19:05:49.081Z,73.73
2018-12-25T19:08:32.152Z,73.87
2018-12-25T19:11:14.199Z,73.98
2018-12-25T19:13:58.097Z,74.12
2018-12-25T19:16:39.737Z,74.31
2018-12-25T19:19:19.959Z,74.43
2018-12-25T19:22:02.475Z,74.70
2018-12-25T19:28:42.544Z,75.34
2018-12-25T19:31:25.638Z,75.89
2018-12-25T19:34:14.494Z,76.08
2018-12-25T19:36:59.966Z,76.35
2018-12-25T19:39:41.119Z,76.55
2018-12-25T19:42:27.816Z,76.60
2018-12-25T19:45:00.633Z,76.59
2018-12-25T19:47:40.431Z,76.82
2018-12-25T19:50:19.935Z,76.76
2018-12-25T19:53:03.425Z,76.94
2018-12-25T19:55:43.398Z,76.98
2018-12-25T19:58:26.574Z,77.16
2018-12-25T20:01:08.014Z,77.41
2018-12-25T20:04:16.358Z,77.63
2018-12-25T20:07:50.916Z,77.90
2018-12-25T20:11:54.200Z,78.23
2018-12-25T20:15:09.448Z,78.56
2018-12-25T20:18:28.580Z,78.79
2018-12-25T20:22:28.280Z,79.04
2018-12-25T20:26:06.193Z,79.27
2018-12-25T20:29:41.502Z,79.37
2018-12-25T20:33:24.755Z,79.37
2018-12-25T20:36:53.904Z,79.54
2018-12-25T20:40:40.996Z,79.57
2018-12-25T20:44:12.030Z,79.49
2018-12-25T20:48:15.514Z,79.63
2018-12-25T20:51:58.913Z,79.65
2018-12-25T20:55:44.844Z,79.66
2018-12-25T20:59:27.993Z,79.86
2018-12-25T21:03:25.600Z,79.83
2018-12-25T21:07:17.226Z,79.70
2018-12-25T21:11:03.652Z,79.85
2018-12-25T21:15:03.292Z,79.93
2018-12-25T21:18:46.835Z,79.91
2018-12-25T21:22:31.854Z,79.67
2018-12-25T21:26:00.981Z,79.46
2018-12-25T21:28:42.910Z,79.38
2018-12-25T21:31:26.209Z,79.40
2018-12-25T21:34:07.117Z,79.30
2018-12-25T21:36:55.247Z,79.24
2018-12-25T21:39:39.331Z,79.12
2018-12-25T21:42:39.035Z,79.09
2018-12-25T21:45:32.894Z,79.05
2018-12-25T21:48:19.187Z,79.01
2018-12-25T21:51:00.325Z,78.96
2018-12-25T21:53:48.977Z,78.92
2018-12-25T21:56:33.139Z,78.89
2018-12-25T21:59:17.091Z,78.88
2018-12-25T22:02:26.403Z,78.87
2018-12-25T22:05:08.362Z,78.82
2018-12-25T22:08:05.521Z,78.80
2018-12-25T22:11:03.494Z,78.77
2018-12-25T22:13:48.255Z,78.75
2018-12-25T22:16:35.866Z,78.72
2018-12-25T22:19:24.515Z,78.68
2018-12-25T22:22:01.867Z,78.70
2018-12-25T22:24:48.420Z,78.68
2018-12-25T22:27:39.242Z,78.64
2018-12-25T22:30:25.250Z,78.63
2018-12-25T22:33:13.925Z,78.58
2018-12-25T22:35:57.322Z,78.59
2018-12-25T22:38:38.108Z,78.60
2018-12-25T22:41:17.493Z,78.59
2018-12-25T22:44:01.566Z,78.56
2018-12-25T22:46:40.671Z,78.50
2018-12-25T22:49:23.135Z,78.47
2018-12-25T22:52:02.218Z,78.46
2018-12-25T22:54:42.722Z,78.48
2018-12-25T22:57:41.902Z,78.49
2018-12-25T23:00:25.946Z,78.48
2018-12-25T23:03:09.685Z,78.51
2018-12-25T23:05:55.313Z,78.53
2018-12-25T23:08:34.235Z,78.56
2018-12-25T23:11:07.309Z,78.59
2018-12-25T23:13:46.891Z,78.62
2018-12-25T23:16:23.343Z,78.70
2018-12-25T23:19:06.768Z,78.77
2018-12-25T23:21:58.862Z,78.80
2018-12-25T23:24:42.968Z,78.83
2018-12-25T23:27:27.287Z,78.82
2018-12-25T23:30:07.296Z,78.76
2018-12-25T23:32:52.354Z,78.75
2018-12-25T23:35:38.402Z,78.70
2018-12-25T23:38:18.478Z,78.71
2018-12-25T23:41:00.531Z,78.74
2018-12-25T23:43:34.873Z,78.72
2018-12-25T23:46:16.211Z,78.70
2018-12-25T23:48:53.451Z,78.68
2018-12-25T23:51:32.557Z,78.71
2018-12-25T23:54:13.419Z,78.75
2018-12-25T23:57:03.938Z,78.74
2018-12-25T23:59:51.195Z,78.69
